sensor_id;sensor_type;location;lat;lon;timestamp;temperature;humidity
55828;DHT22;41758;51.992;5.890;2023-05-29T00:02:15;17.60;49.20
55828;DHT22;41758;51.992;5.890;2023-05-29T00:04:41;17.50;49.40
55828;DHT22;41758;51.992;5.890;2023-05-29T00:07:06;17.50;49.40
55828;DHT22;41758;51.992;5.890;2023-05-29T00:09:32;17.40;49.40
55828;DHT22;41758;51.992;5.890;2023-05-29T00:11:57;17.40;49.50
55828;DHT22;41758;51.992;5.890;2023-05-29T00:14:23;17.40;49.50
55828;DHT22;41758;51.992;5.890;2023-05-29T00:16:50;17.30;49.60
55828;DHT22;41758;51.992;5.890;2023-05-29T00:19:16;17.30;49.60
55828;DHT22;41758;51.992;5.890;2023-05-29T00:21:43;17.30;49.70
55828;DHT22;41758;51.992;5.890;2023-05-29T00:24:08;17.30;49.70
55828;DHT22;41758;51.992;5.890;2023-05-29T00:26:34;17.30;49.80
55828;DHT22;41758;51.992;5.890;2023-05-29T00:29:01;17.30;49.70
55828;DHT22;41758;51.992;5.890;2023-05-29T00:31:27;17.20;49.70
55828;DHT22;41758;51.992;5.890;2023-05-29T00:33:53;17.20;49.80
55828;DHT22;41758;51.992;5.890;2023-05-29T00:36:19;17.20;49.80
55828;DHT22;41758;51.992;5.890;2023-05-29T00:38:44;17.10;49.80
55828;DHT22;41758;51.992;5.890;2023-05-29T00:41:16;17.10;49.80
55828;DHT22;41758;51.992;5.890;2023-05-29T00:43:43;17.10;49.80
55828;DHT22;41758;51.992;5.890;2023-05-29T00:46:09;17.10;49.80
55828;DHT22;41758;51.992;5.890;2023-05-29T00:48:37;17.10;49.80
55828;DHT22;41758;51.992;5.890;2023-05-29T00:51:03;17.10;49.80
55828;DHT22;41758;51.992;5.890;2023-05-29T00:53:29;17.10;49.90
55828;DHT22;41758;51.992;5.890;2023-05-29T00:55:54;17.10;49.90
55828;DHT22;41758;51.992;5.890;2023-05-29T00:58:20;17.00;49.90
55828;DHT22;41758;51.992;5.890;2023-05-29T01:00:47;17.00;49.90
55828;DHT22;41758;51.992;5.890;2023-05-29T01:03:14;17.00;49.90
55828;DHT22;41758;51.992;5.890;2023-05-29T01:05:42;17.00;49.90
55828;DHT22;41758;51.992;5.890;2023-05-29T01:08:08;16.90;49.90
55828;DHT22;41758;51.992;5.890;2023-05-29T01:10:35;16.90;50.00
55828;DHT22;41758;51.992;5.890;2023-05-29T01:13:11;16.90;50.00
55828;DHT22;41758;51.992;5.890;2023-05-29T01:15:50;16.90;50.00
55828;DHT22;41758;51.992;5.890;2023-05-29T01:23:52;16.80;50.00
55828;DHT22;41758;51.992;5.890;2023-05-29T01:29:06;16.80;49.90
55828;DHT22;41758;51.992;5.890;2023-05-29T01:31:33;16.80;49.90
55828;DHT22;41758;51.992;5.890;2023-05-29T01:34:00;16.70;49.90
55828;DHT22;41758;51.992;5.890;2023-05-29T01:36:26;16.70;49.90
55828;DHT22;41758;51.992;5.890;2023-05-29T01:38:55;16.70;49.90
55828;DHT22;41758;51.992;5.890;2023-05-29T01:41:23;16.70;49.90
55828;DHT22;41758;51.992;5.890;2023-05-29T01:43:49;16.70;49.90
55828;DHT22;41758;51.992;5.890;2023-05-29T01:46:18;16.60;49.90
55828;DHT22;41758;51.992;5.890;2023-05-29T01:48:45;16.60;49.90
55828;DHT22;41758;51.992;5.890;2023-05-29T01:51:11;16.60;49.90
55828;DHT22;41758;51.992;5.890;2023-05-29T01:53:39;16.60;49.90
55828;DHT22;41758;51.992;5.890;2023-05-29T01:56:08;16.50;49.90
55828;DHT22;41758;51.992;5.890;2023-05-29T01:58:35;16.50;50.00
55828;DHT22;41758;51.992;5.890;2023-05-29T02:01:02;16.50;50.00
55828;DHT22;41758;51.992;5.890;2023-05-29T02:03:29;16.40;49.90
55828;DHT22;41758;51.992;5.890;2023-05-29T02:05:59;16.40;50.00
55828;DHT22;41758;51.992;5.890;2023-05-29T02:08:26;16.40;50.00
55828;DHT22;41758;51.992;5.890;2023-05-29T02:10:52;16.40;50.00
55828;DHT22;41758;51.992;5.890;2023-05-29T02:13:18;16.40;50.00
55828;DHT22;41758;51.992;5.890;2023-05-29T02:15:44;16.40;50.00
55828;DHT22;41758;51.992;5.890;2023-05-29T02:18:12;16.30;50.00
55828;DHT22;41758;51.992;5.890;2023-05-29T02:20:38;16.30;50.00
55828;DHT22;41758;51.992;5.890;2023-05-29T02:23:04;16.30;50.00
55828;DHT22;41758;51.992;5.890;2023-05-29T02:25:30;16.30;50.10
55828;DHT22;41758;51.992;5.890;2023-05-29T02:27:56;16.30;50.00
55828;DHT22;41758;51.992;5.890;2023-05-29T02:30:21;16.30;50.10
55828;DHT22;41758;51.992;5.890;2023-05-29T02:32:47;16.20;50.10
55828;DHT22;41758;51.992;5.890;2023-05-29T02:35:13;16.20;50.10
55828;DHT22;41758;51.992;5.890;2023-05-29T02:37:41;16.10;50.20
55828;DHT22;41758;51.992;5.890;2023-05-29T02:40:07;16.10;50.20
55828;DHT22;41758;51.992;5.890;2023-05-29T02:42:37;16.10;50.20
55828;DHT22;41758;51.992;5.890;2023-05-29T02:45:04;16.10;50.30
55828;DHT22;41758;51.992;5.890;2023-05-29T02:47:29;16.00;50.30
55828;DHT22;41758;51.992;5.890;2023-05-29T02:49:56;16.10;50.40
55828;DHT22;41758;51.992;5.890;2023-05-29T02:52:23;16.00;50.40
55828;DHT22;41758;51.992;5.890;2023-05-29T02:54:49;16.00;50.40
55828;DHT22;41758;51.992;5.890;2023-05-29T02:57:15;16.00;50.40
55828;DHT22;41758;51.992;5.890;2023-05-29T02:59:41;16.00;50.50
55828;DHT22;41758;51.992;5.890;2023-05-29T03:02:07;15.90;50.50
55828;DHT22;41758;51.992;5.890;2023-05-29T03:04:33;15.90;50.50
55828;DHT22;41758;51.992;5.890;2023-05-29T03:06:59;15.90;50.60
55828;DHT22;41758;51.992;5.890;2023-05-29T03:09:25;15.90;50.60
55828;DHT22;41758;51.992;5.890;2023-05-29T03:11:51;15.80;50.60
55828;DHT22;41758;51.992;5.890;2023-05-29T03:14:17;15.80;50.60
55828;DHT22;41758;51.992;5.890;2023-05-29T03:16:44;15.80;50.70
55828;DHT22;41758;51.992;5.890;2023-05-29T03:19:11;15.80;50.90
55828;DHT22;41758;51.992;5.890;2023-05-29T03:21:37;15.70;50.80
55828;DHT22;41758;51.992;5.890;2023-05-29T03:24:03;15.70;50.90
55828;DHT22;41758;51.992;5.890;2023-05-29T03:26:31;15.60;50.90
55828;DHT22;41758;51.992;5.890;2023-05-29T03:28:57;15.60;50.90
55828;DHT22;41758;51.992;5.890;2023-05-29T03:31:23;15.60;51.00
55828;DHT22;41758;51.992;5.890;2023-05-29T03:33:49;15.60;51.00
55828;DHT22;41758;51.992;5.890;2023-05-29T03:36:21;15.50;51.10
55828;DHT22;41758;51.992;5.890;2023-05-29T03:38:47;15.50;51.10
55828;DHT22;41758;51.992;5.890;2023-05-29T03:41:13;15.50;51.20
55828;DHT22;41758;51.992;5.890;2023-05-29T03:43:39;15.50;51.20
55828;DHT22;41758;51.992;5.890;2023-05-29T03:46:04;15.50;51.20
55828;DHT22;41758;51.992;5.890;2023-05-29T03:48:32;15.50;51.30
55828;DHT22;41758;51.992;5.890;2023-05-29T03:50:58;15.40;51.30
55828;DHT22;41758;51.992;5.890;2023-05-29T03:53:30;15.50;51.30
55828;DHT22;41758;51.992;5.890;2023-05-29T03:55:56;15.40;51.40
55828;DHT22;41758;51.992;5.890;2023-05-29T03:58:22;15.40;51.40
55828;DHT22;41758;51.992;5.890;2023-05-29T04:00:48;15.40;51.40
55828;DHT22;41758;51.992;5.890;2023-05-29T04:03:16;15.40;51.50
55828;DHT22;41758;51.992;5.890;2023-05-29T04:05:41;15.40;51.50
55828;DHT22;41758;51.992;5.890;2023-05-29T04:08:08;15.40;51.50
55828;DHT22;41758;51.992;5.890;2023-05-29T04:10:34;15.40;51.50
55828;DHT22;41758;51.992;5.890;2023-05-29T04:13:00;15.40;51.50
55828;DHT22;41758;51.992;5.890;2023-05-29T04:15:29;15.40;51.50
55828;DHT22;41758;51.992;5.890;2023-05-29T04:17:55;15.40;51.60
55828;DHT22;41758;51.992;5.890;2023-05-29T04:20:22;15.40;51.60
55828;DHT22;41758;51.992;5.890;2023-05-29T04:22:48;15.40;51.60
55828;DHT22;41758;51.992;5.890;2023-05-29T04:25:14;15.50;51.70
55828;DHT22;41758;51.992;5.890;2023-05-29T04:27:41;15.50;51.60
55828;DHT22;41758;51.992;5.890;2023-05-29T04:30:09;15.50;51.70
55828;DHT22;41758;51.992;5.890;2023-05-29T04:32:39;15.50;51.70
55828;DHT22;41758;51.992;5.890;2023-05-29T04:35:06;15.50;51.70
55828;DHT22;41758;51.992;5.890;2023-05-29T04:37:35;15.50;51.60
55828;DHT22;41758;51.992;5.890;2023-05-29T04:40:09;15.50;51.70
55828;DHT22;41758;51.992;5.890;2023-05-29T04:42:36;15.50;51.70
55828;DHT22;41758;51.992;5.890;2023-05-29T04:45:03;15.50;51.70
55828;DHT22;41758;51.992;5.890;2023-05-29T04:47:32;15.50;51.80
55828;DHT22;41758;51.992;5.890;2023-05-29T04:50:01;15.50;51.80
55828;DHT22;41758;51.992;5.890;2023-05-29T04:52:28;15.60;51.90
55828;DHT22;41758;51.992;5.890;2023-05-29T04:54:54;15.50;51.90
55828;DHT22;41758;51.992;5.890;2023-05-29T04:57:20;15.50;51.90
55828;DHT22;41758;51.992;5.890;2023-05-29T04:59:47;15.60;51.90
55828;DHT22;41758;51.992;5.890;2023-05-29T05:02:13;15.50;51.90
55828;DHT22;41758;51.992;5.890;2023-05-29T05:04:39;15.60;51.90
55828;DHT22;41758;51.992;5.890;2023-05-29T05:07:05;15.60;52.00
55828;DHT22;41758;51.992;5.890;2023-05-29T05:09:32;15.60;52.00
55828;DHT22;41758;51.992;5.890;2023-05-29T05:11:57;15.60;52.00
55828;DHT22;41758;51.992;5.890;2023-05-29T05:14:24;15.60;52.10
55828;DHT22;41758;51.992;5.890;2023-05-29T05:16:49;15.70;52.10
55828;DHT22;41758;51.992;5.890;2023-05-29T05:19:16;15.70;52.10
55828;DHT22;41758;51.992;5.890;2023-05-29T05:21:43;15.70;52.10
55828;DHT22;41758;51.992;5.890;2023-05-29T05:24:09;15.70;52.10
55828;DHT22;41758;51.992;5.890;2023-05-29T05:26:38;15.70;52.10
55828;DHT22;41758;51.992;5.890;2023-05-29T05:29:05;15.70;52.10
55828;DHT22;41758;51.992;5.890;2023-05-29T05:31:32;15.70;52.10
55828;DHT22;41758;51.992;5.890;2023-05-29T05:33:58;15.80;52.20
55828;DHT22;41758;51.992;5.890;2023-05-29T05:36:24;15.80;52.20
55828;DHT22;41758;51.992;5.890;2023-05-29T05:38:55;15.80;52.20
55828;DHT22;41758;51.992;5.890;2023-05-29T05:41:22;15.80;52.30
55828;DHT22;41758;51.992;5.890;2023-05-29T05:43:49;15.90;52.30
55828;DHT22;41758;51.992;5.890;2023-05-29T05:46:25;15.90;52.20
55828;DHT22;41758;51.992;5.890;2023-05-29T05:48:52;16.00;52.30
55828;DHT22;41758;51.992;5.890;2023-05-29T05:51:21;16.00;52.20
55828;DHT22;41758;51.992;5.890;2023-05-29T05:53:46;16.10;52.30
55828;DHT22;41758;51.992;5.890;2023-05-29T05:56:13;16.10;52.20
55828;DHT22;41758;51.992;5.890;2023-05-29T05:58:39;16.10;52.30
55828;DHT22;41758;51.992;5.890;2023-05-29T06:01:05;16.20;52.20
55828;DHT22;41758;51.992;5.890;2023-05-29T06:03:34;16.20;52.20
55828;DHT22;41758;51.992;5.890;2023-05-29T06:06:01;16.30;52.30
55828;DHT22;41758;51.992;5.890;2023-05-29T06:08:27;16.30;52.20
55828;DHT22;41758;51.992;5.890;2023-05-29T06:10:53;16.30;52.20
55828;DHT22;41758;51.992;5.890;2023-05-29T06:13:19;16.40;52.10
55828;DHT22;41758;51.992;5.890;2023-05-29T06:15:49;16.40;52.10
55828;DHT22;41758;51.992;5.890;2023-05-29T06:18:15;16.50;52.00
55828;DHT22;41758;51.992;5.890;2023-05-29T06:20:42;16.50;52.00
55828;DHT22;41758;51.992;5.890;2023-05-29T06:23:07;16.50;52.00
55828;DHT22;41758;51.992;5.890;2023-05-29T06:25:35;16.60;51.90
55828;DHT22;41758;51.992;5.890;2023-05-29T06:28:01;16.60;51.90
55828;DHT22;41758;51.992;5.890;2023-05-29T06:30:28;16.70;51.80
55828;DHT22;41758;51.992;5.890;2023-05-29T06:32:54;16.70;51.70
55828;DHT22;41758;51.992;5.890;2023-05-29T06:35:26;16.70;51.70
55828;DHT22;41758;51.992;5.890;2023-05-29T06:37:51;16.70;51.70
55828;DHT22;41758;51.992;5.890;2023-05-29T06:40:17;16.80;51.70
55828;DHT22;41758;51.992;5.890;2023-05-29T06:42:44;16.80;51.60
55828;DHT22;41758;51.992;5.890;2023-05-29T06:45:13;16.80;51.60
55828;DHT22;41758;51.992;5.890;2023-05-29T06:47:40;16.90;51.50
55828;DHT22;41758;51.992;5.890;2023-05-29T06:50:07;16.90;51.50
55828;DHT22;41758;51.992;5.890;2023-05-29T06:52:33;16.90;51.50
55828;DHT22;41758;51.992;5.890;2023-05-29T06:55:25;17.00;51.30
55828;DHT22;41758;51.992;5.890;2023-05-29T06:57:51;17.10;51.30
55828;DHT22;41758;51.992;5.890;2023-05-29T07:00:17;17.10;51.30
55828;DHT22;41758;51.992;5.890;2023-05-29T07:02:53;17.20;51.10
55828;DHT22;41758;51.992;5.890;2023-05-29T07:05:19;17.20;51.10
55828;DHT22;41758;51.992;5.890;2023-05-29T07:07:45;17.20;51.10
55828;DHT22;41758;51.992;5.890;2023-05-29T07:10:11;17.30;51.10
55828;DHT22;41758;51.992;5.890;2023-05-29T07:12:37;17.40;51.10
55828;DHT22;41758;51.992;5.890;2023-05-29T07:15:04;17.40;51.10
55828;DHT22;41758;51.992;5.890;2023-05-29T07:17:30;17.60;51.10
55828;DHT22;41758;51.992;5.890;2023-05-29T07:20:08;17.60;50.90
55828;DHT22;41758;51.992;5.890;2023-05-29T07:22:35;17.70;50.90
55828;DHT22;41758;51.992;5.890;2023-05-29T07:25:01;17.70;50.80
55828;DHT22;41758;51.992;5.890;2023-05-29T07:27:27;17.80;50.40
55828;DHT22;41758;51.992;5.890;2023-05-29T07:29:53;17.80;50.10
55828;DHT22;41758;51.992;5.890;2023-05-29T07:32:19;17.80;50.10
55828;DHT22;41758;51.992;5.890;2023-05-29T07:34:44;17.90;50.10
55828;DHT22;41758;51.992;5.890;2023-05-29T07:37:11;17.90;49.90
55828;DHT22;41758;51.992;5.890;2023-05-29T07:39:38;18.00;50.00
55828;DHT22;41758;51.992;5.890;2023-05-29T07:42:16;18.00;49.90
55828;DHT22;41758;51.992;5.890;2023-05-29T07:44:42;18.10;49.90
55828;DHT22;41758;51.992;5.890;2023-05-29T07:47:09;18.10;49.70
55828;DHT22;41758;51.992;5.890;2023-05-29T07:49:39;18.10;49.20
55828;DHT22;41758;51.992;5.890;2023-05-29T07:52:06;18.20;49.40
55828;DHT22;41758;51.992;5.890;2023-05-29T07:54:32;18.20;49.40
55828;DHT22;41758;51.992;5.890;2023-05-29T07:57:00;18.30;49.30
55828;DHT22;41758;51.992;5.890;2023-05-29T07:59:26;18.30;49.30
55828;DHT22;41758;51.992;5.890;2023-05-29T08:01:52;18.30;49.40
55828;DHT22;41758;51.992;5.890;2023-05-29T08:04:37;18.40;49.20
55828;DHT22;41758;51.992;5.890;2023-05-29T08:07:03;18.50;49.10
55828;DHT22;41758;51.992;5.890;2023-05-29T08:09:29;18.50;48.90
55828;DHT22;41758;51.992;5.890;2023-05-29T08:11:55;18.60;48.80
55828;DHT22;41758;51.992;5.890;2023-05-29T08:14:21;18.60;48.60
55828;DHT22;41758;51.992;5.890;2023-05-29T08:16:47;18.60;48.80
55828;DHT22;41758;51.992;5.890;2023-05-29T08:19:13;18.60;48.30
55828;DHT22;41758;51.992;5.890;2023-05-29T08:21:39;18.60;48.30
55828;DHT22;41758;51.992;5.890;2023-05-29T08:24:05;18.70;48.20
55828;DHT22;41758;51.992;5.890;2023-05-29T08:26:31;18.70;48.10
55828;DHT22;41758;51.992;5.890;2023-05-29T08:28:57;18.80;48.10
55828;DHT22;41758;51.992;5.890;2023-05-29T08:31:22;18.80;48.10
55828;DHT22;41758;51.992;5.890;2023-05-29T08:33:51;18.80;47.80
55828;DHT22;41758;51.992;5.890;2023-05-29T08:36:17;18.80;48.00
55828;DHT22;41758;51.992;5.890;2023-05-29T08:38:43;18.90;47.90
55828;DHT22;41758;51.992;5.890;2023-05-29T08:41:12;19.00;48.00
55828;DHT22;41758;51.992;5.890;2023-05-29T08:43:41;19.00;47.90
55828;DHT22;41758;51.992;5.890;2023-05-29T08:46:08;19.10;47.90
55828;DHT22;41758;51.992;5.890;2023-05-29T08:48:36;19.20;48.00
55828;DHT22;41758;51.992;5.890;2023-05-29T08:51:02;19.30;47.80
55828;DHT22;41758;51.992;5.890;2023-05-29T08:53:29;19.30;47.70
55828;DHT22;41758;51.992;5.890;2023-05-29T08:55:57;19.40;47.80
55828;DHT22;41758;51.992;5.890;2023-05-29T08:58:23;19.60;47.80
55828;DHT22;41758;51.992;5.890;2023-05-29T09:00:50;19.60;47.60
55828;DHT22;41758;51.992;5.890;2023-05-29T09:03:20;19.80;47.60
55828;DHT22;41758;51.992;5.890;2023-05-29T09:05:48;19.80;47.60
55828;DHT22;41758;51.992;5.890;2023-05-29T09:08:14;19.90;47.50
55828;DHT22;41758;51.992;5.890;2023-05-29T09:10:44;20.10;47.50
55828;DHT22;41758;51.992;5.890;2023-05-29T09:13:11;20.10;47.30
55828;DHT22;41758;51.992;5.890;2023-05-29T09:15:40;20.20;46.80
55828;DHT22;41758;51.992;5.890;2023-05-29T09:18:09;20.30;46.80
55828;DHT22;41758;51.992;5.890;2023-05-29T09:20:34;20.30;46.90
55828;DHT22;41758;51.992;5.890;2023-05-29T09:23:08;20.40;46.90
55828;DHT22;41758;51.992;5.890;2023-05-29T09:25:36;20.50;46.90
55828;DHT22;41758;51.992;5.890;2023-05-29T09:28:06;20.60;46.70
55828;DHT22;41758;51.992;5.890;2023-05-29T09:30:43;20.60;46.40
55828;DHT22;41758;51.992;5.890;2023-05-29T09:33:11;20.70;45.90
55828;DHT22;41758;51.992;5.890;2023-05-29T09:35:39;20.80;46.10
55828;DHT22;41758;51.992;5.890;2023-05-29T09:38:09;20.80;46.10
55828;DHT22;41758;51.992;5.890;2023-05-29T09:40:39;20.90;46.20
55828;DHT22;41758;51.992;5.890;2023-05-29T09:43:09;21.00;46.00
55828;DHT22;41758;51.992;5.890;2023-05-29T09:45:46;21.10;45.90
55828;DHT22;41758;51.992;5.890;2023-05-29T09:48:16;21.20;45.80
55828;DHT22;41758;51.992;5.890;2023-05-29T09:50:46;21.30;45.70
55828;DHT22;41758;51.992;5.890;2023-05-29T09:53:20;21.30;45.60
55828;DHT22;41758;51.992;5.890;2023-05-29T09:55:51;21.40;45.50
55828;DHT22;41758;51.992;5.890;2023-05-29T09:58:18;21.50;45.20
55828;DHT22;41758;51.992;5.890;2023-05-29T10:00:45;21.50;45.20
55828;DHT22;41758;51.992;5.890;2023-05-29T10:03:14;21.60;45.20
55828;DHT22;41758;51.992;5.890;2023-05-29T10:05:46;21.70;45.10
55828;DHT22;41758;51.992;5.890;2023-05-29T10:08:15;21.70;45.00
55828;DHT22;41758;51.992;5.890;2023-05-29T10:10:46;21.80;45.00
55828;DHT22;41758;51.992;5.890;2023-05-29T10:13:13;21.80;44.70
55828;DHT22;41758;51.992;5.890;2023-05-29T10:15:46;21.90;44.70
55828;DHT22;41758;51.992;5.890;2023-05-29T10:18:26;22.00;44.30
55828;DHT22;41758;51.992;5.890;2023-05-29T10:20:53;22.00;44.30
55828;DHT22;41758;51.992;5.890;2023-05-29T10:23:23;22.10;44.30
55828;DHT22;41758;51.992;5.890;2023-05-29T10:25:53;22.10;44.30
55828;DHT22;41758;51.992;5.890;2023-05-29T10:28:20;22.30;44.20
55828;DHT22;41758;51.992;5.890;2023-05-29T10:30:58;22.30;44.10
55828;DHT22;41758;51.992;5.890;2023-05-29T10:36:17;22.40;43.10
55828;DHT22;41758;51.992;5.890;2023-05-29T10:38:47;22.50;42.90
55828;DHT22;41758;51.992;5.890;2023-05-29T10:43:53;22.60;42.70
55828;DHT22;41758;51.992;5.890;2023-05-29T10:46:19;22.70;42.70
55828;DHT22;41758;51.992;5.890;2023-05-29T10:48:46;22.80;42.50
55828;DHT22;41758;51.992;5.890;2023-05-29T10:51:25;22.80;42.50
55828;DHT22;41758;51.992;5.890;2023-05-29T10:53:52;22.80;42.20
55828;DHT22;41758;51.992;5.890;2023-05-29T10:56:28;22.90;42.30
55828;DHT22;41758;51.992;5.890;2023-05-29T10:58:59;23.00;42.10
55828;DHT22;41758;51.992;5.890;2023-05-29T11:01:30;23.00;42.20
55828;DHT22;41758;51.992;5.890;2023-05-29T11:06:45;23.10;42.10
55828;DHT22;41758;51.992;5.890;2023-05-29T11:14:55;23.30;41.10
55828;DHT22;41758;51.992;5.890;2023-05-29T11:20:05;23.40;41.10
55828;DHT22;41758;51.992;5.890;2023-05-29T11:25:07;23.50;41.10
55828;DHT22;41758;51.992;5.890;2023-05-29T11:27:33;23.60;41.20
55828;DHT22;41758;51.992;5.890;2023-05-29T11:30:00;23.70;41.10
55828;DHT22;41758;51.992;5.890;2023-05-29T11:32:27;23.80;41.00
55828;DHT22;41758;51.992;5.890;2023-05-29T11:34:56;23.90;41.00
55828;DHT22;41758;51.992;5.890;2023-05-29T11:37:23;24.00;40.90
55828;DHT22;41758;51.992;5.890;2023-05-29T11:39:49;24.10;40.70
55828;DHT22;41758;51.992;5.890;2023-05-29T11:42:15;24.20;40.70
55828;DHT22;41758;51.992;5.890;2023-05-29T11:44:41;24.20;40.30
55828;DHT22;41758;51.992;5.890;2023-05-29T11:47:07;24.30;40.10
55828;DHT22;41758;51.992;5.890;2023-05-29T11:49:36;24.30;40.10
55828;DHT22;41758;51.992;5.890;2023-05-29T11:52:28;24.40;39.90
55828;DHT22;41758;51.992;5.890;2023-05-29T11:54:54;24.40;39.10
55828;DHT22;41758;51.992;5.890;2023-05-29T11:57:25;24.40;39.40
55828;DHT22;41758;51.992;5.890;2023-05-29T11:59:51;24.40;39.00
55828;DHT22;41758;51.992;5.890;2023-05-29T12:02:24;24.40;39.00
55828;DHT22;41758;51.992;5.890;2023-05-29T12:05:04;24.40;39.00
55828;DHT22;41758;51.992;5.890;2023-05-29T12:07:30;24.50;38.90
55828;DHT22;41758;51.992;5.890;2023-05-29T12:09:56;24.50;38.80
55828;DHT22;41758;51.992;5.890;2023-05-29T12:12:23;24.50;38.60
55828;DHT22;41758;51.992;5.890;2023-05-29T12:14:52;24.60;38.60
55828;DHT22;41758;51.992;5.890;2023-05-29T12:17:19;24.60;38.50
55828;DHT22;41758;51.992;5.890;2023-05-29T12:19:45;24.60;38.40
55828;DHT22;41758;51.992;5.890;2023-05-29T12:22:11;24.70;38.30
55828;DHT22;41758;51.992;5.890;2023-05-29T12:24:37;24.80;38.10
55828;DHT22;41758;51.992;5.890;2023-05-29T12:27:07;24.80;37.70
55828;DHT22;41758;51.992;5.890;2023-05-29T12:29:33;24.80;37.70
55828;DHT22;41758;51.992;5.890;2023-05-29T12:31:59;24.80;37.60
55828;DHT22;41758;51.992;5.890;2023-05-29T12:34:25;24.80;37.60
55828;DHT22;41758;51.992;5.890;2023-05-29T12:36:50;24.80;37.50
55828;DHT22;41758;51.992;5.890;2023-05-29T12:39:16;24.80;37.50
55828;DHT22;41758;51.992;5.890;2023-05-29T12:41:42;24.90;37.50
55828;DHT22;41758;51.992;5.890;2023-05-29T12:44:08;24.90;37.50
55828;DHT22;41758;51.992;5.890;2023-05-29T12:46:41;25.00;37.10
55828;DHT22;41758;51.992;5.890;2023-05-29T12:49:14;25.00;37.20
55828;DHT22;41758;51.992;5.890;2023-05-29T12:51:41;25.10;37.20
55828;DHT22;41758;51.992;5.890;2023-05-29T12:54:09;25.10;36.90
55828;DHT22;41758;51.992;5.890;2023-05-29T12:56:35;25.10;37.00
55828;DHT22;41758;51.992;5.890;2023-05-29T12:59:01;25.20;36.90
55828;DHT22;41758;51.992;5.890;2023-05-29T13:01:26;25.10;36.50
55828;DHT22;41758;51.992;5.890;2023-05-29T13:03:52;25.10;36.20
55828;DHT22;41758;51.992;5.890;2023-05-29T13:06:18;25.00;36.20
55828;DHT22;41758;51.992;5.890;2023-05-29T13:08:44;25.00;36.20
55828;DHT22;41758;51.992;5.890;2023-05-29T13:11:09;25.00;36.00
55828;DHT22;41758;51.992;5.890;2023-05-29T13:13:35;25.00;35.90
55828;DHT22;41758;51.992;5.890;2023-05-29T13:16:01;25.10;36.00
55828;DHT22;41758;51.992;5.890;2023-05-29T13:18:26;25.10;35.90
55828;DHT22;41758;51.992;5.890;2023-05-29T13:20:52;25.10;35.80
55828;DHT22;41758;51.992;5.890;2023-05-29T13:23:18;25.10;35.80
55828;DHT22;41758;51.992;5.890;2023-05-29T13:25:43;25.20;35.90
55828;DHT22;41758;51.992;5.890;2023-05-29T13:28:09;25.20;35.50
55828;DHT22;41758;51.992;5.890;2023-05-29T13:30:35;25.20;35.50
55828;DHT22;41758;51.992;5.890;2023-05-29T13:33:00;25.20;35.70
55828;DHT22;41758;51.992;5.890;2023-05-29T13:35:26;25.30;35.60
55828;DHT22;41758;51.992;5.890;2023-05-29T13:37:52;25.30;35.60
55828;DHT22;41758;51.992;5.890;2023-05-29T13:40:17;25.30;35.50
55828;DHT22;41758;51.992;5.890;2023-05-29T13:42:43;25.40;35.60
55828;DHT22;41758;51.992;5.890;2023-05-29T13:45:09;25.40;35.50
55828;DHT22;41758;51.992;5.890;2023-05-29T13:47:35;25.40;35.20
55828;DHT22;41758;51.992;5.890;2023-05-29T13:50:01;25.50;35.20
55828;DHT22;41758;51.992;5.890;2023-05-29T13:52:27;25.40;35.20
55828;DHT22;41758;51.992;5.890;2023-05-29T13:54:53;25.50;35.10
55828;DHT22;41758;51.992;5.890;2023-05-29T13:57:18;25.60;35.20
55828;DHT22;41758;51.992;5.890;2023-05-29T13:59:44;25.60;34.90
55828;DHT22;41758;51.992;5.890;2023-05-29T14:02:11;25.70;34.20
55828;DHT22;41758;51.992;5.890;2023-05-29T14:04:37;25.80;34.40
55828;DHT22;41758;51.992;5.890;2023-05-29T14:07:04;25.80;34.60
55828;DHT22;41758;51.992;5.890;2023-05-29T14:09:29;25.90;34.60
55828;DHT22;41758;51.992;5.890;2023-05-29T14:11:57;25.90;34.30
55828;DHT22;41758;51.992;5.890;2023-05-29T14:14:24;26.10;34.30
55828;DHT22;41758;51.992;5.890;2023-05-29T14:16:50;26.10;34.20
55828;DHT22;41758;51.992;5.890;2023-05-29T14:19:17;26.20;34.10
55828;DHT22;41758;51.992;5.890;2023-05-29T14:21:43;26.30;34.10
55828;DHT22;41758;51.992;5.890;2023-05-29T14:24:09;26.30;33.90
55828;DHT22;41758;51.992;5.890;2023-05-29T14:26:35;26.40;33.70
55828;DHT22;41758;51.992;5.890;2023-05-29T14:29:01;26.40;33.10
55828;DHT22;41758;51.992;5.890;2023-05-29T14:31:27;26.40;33.30
55828;DHT22;41758;51.992;5.890;2023-05-29T14:33:53;26.50;33.00
55828;DHT22;41758;51.992;5.890;2023-05-29T14:36:18;26.60;32.80
55828;DHT22;41758;51.992;5.890;2023-05-29T14:38:44;26.60;32.80
55828;DHT22;41758;51.992;5.890;2023-05-29T14:41:11;26.70;32.80
55828;DHT22;41758;51.992;5.890;2023-05-29T14:43:41;26.80;32.80
55828;DHT22;41758;51.992;5.890;2023-05-29T14:46:07;26.80;32.70
55828;DHT22;41758;51.992;5.890;2023-05-29T14:48:33;26.80;32.70
55828;DHT22;41758;51.992;5.890;2023-05-29T14:50:59;26.90;32.70
55828;DHT22;41758;51.992;5.890;2023-05-29T14:53:24;26.80;32.80
55828;DHT22;41758;51.992;5.890;2023-05-29T14:55:50;26.90;32.70
55828;DHT22;41758;51.992;5.890;2023-05-29T14:58:16;26.90;32.20
55828;DHT22;41758;51.992;5.890;2023-05-29T15:00:41;26.90;32.30
55828;DHT22;41758;51.992;5.890;2023-05-29T15:03:07;26.90;32.30
55828;DHT22;41758;51.992;5.890;2023-05-29T15:05:33;26.90;32.10
55828;DHT22;41758;51.992;5.890;2023-05-29T15:07:58;26.90;31.90
55828;DHT22;41758;51.992;5.890;2023-05-29T15:10:26;26.90;32.00
55828;DHT22;41758;51.992;5.890;2023-05-29T15:12:53;26.90;32.00
55828;DHT22;41758;51.992;5.890;2023-05-29T15:15:28;26.90;31.90
55828;DHT22;41758;51.992;5.890;2023-05-29T15:17:54;27.00;31.90
55828;DHT22;41758;51.992;5.890;2023-05-29T15:20:24;27.00;31.90
55828;DHT22;41758;51.992;5.890;2023-05-29T15:22:50;27.00;31.70
55828;DHT22;41758;51.992;5.890;2023-05-29T15:25:17;27.00;31.70
55828;DHT22;41758;51.992;5.890;2023-05-29T15:27:43;27.00;31.70
55828;DHT22;41758;51.992;5.890;2023-05-29T15:30:11;27.00;31.70
55828;DHT22;41758;51.992;5.890;2023-05-29T15:32:38;27.00;31.60
55828;DHT22;41758;51.992;5.890;2023-05-29T15:35:05;27.00;31.50
55828;DHT22;41758;51.992;5.890;2023-05-29T15:37:30;27.10;31.30
55828;DHT22;41758;51.992;5.890;2023-05-29T15:39:56;27.10;31.40
55828;DHT22;41758;51.992;5.890;2023-05-29T15:42:22;27.10;31.50
55828;DHT22;41758;51.992;5.890;2023-05-29T15:44:47;27.20;31.40
55828;DHT22;41758;51.992;5.890;2023-05-29T15:47:13;27.10;31.00
55828;DHT22;41758;51.992;5.890;2023-05-29T15:49:39;27.20;30.90
55828;DHT22;41758;51.992;5.890;2023-05-29T15:52:05;27.30;31.00
55828;DHT22;41758;51.992;5.890;2023-05-29T15:54:30;27.30;31.00
55828;DHT22;41758;51.992;5.890;2023-05-29T15:56:56;27.30;30.90
55828;DHT22;41758;51.992;5.890;2023-05-29T15:59:22;27.30;30.90